createdAt,value
2022-09-02T00:00:13.967Z,14.80
2022-09-02T00:02:43.484Z,14.80
2022-09-02T00:05:11.422Z,14.80
2022-09-02T00:07:39.292Z,14.80
2022-09-02T00:10:07.617Z,14.70
2022-09-02T00:12:35.492Z,14.70
2022-09-02T00:15:03.369Z,14.70
2022-09-02T00:17:31.338Z,14.70
2022-09-02T00:20:00.583Z,14.70
2022-09-02T00:22:28.461Z,14.60
2022-09-02T00:24:56.343Z,14.60
2022-09-02T00:27:24.177Z,14.60
2022-09-02T00:29:53.240Z,14.60
2022-09-02T00:32:21.243Z,14.60
2022-09-02T00:34:49.115Z,14.50
2022-09-02T00:37:18.441Z,14.50
2022-09-02T00:39:46.243Z,14.50
2022-09-02T00:42:14.151Z,14.50
2022-09-02T00:44:42.423Z,14.40
2022-09-02T00:47:10.297Z,14.40
2022-09-02T00:49:42.817Z,14.40
2022-09-02T00:52:14.948Z,14.40
2022-09-02T00:54:50.276Z,14.40
2022-09-02T00:57:22.082Z,14.40
2022-09-02T00:59:54.961Z,14.40
2022-09-02T01:02:24.138Z,14.40
2022-09-02T01:04:53.171Z,14.30
2022-09-02T01:07:22.305Z,14.30
2022-09-02T01:09:51.630Z,14.30
2022-09-02T01:12:20.705Z,14.30
2022-09-02T01:14:48.523Z,14.30
2022-09-02T01:17:20.228Z,14.40
2022-09-02T01:19:52.588Z,14.30
2022-09-02T01:22:24.566Z,14.30
2022-09-02T01:24:52.609Z,14.20
2022-09-02T01:27:22.694Z,14.10
2022-09-02T01:29:53.368Z,14.20
2022-09-02T01:32:22.121Z,14.20
2022-09-02T01:34:50.547Z,14.20
2022-09-02T01:37:20.476Z,14.20
2022-09-02T01:39:52.206Z,14.20
2022-09-02T01:42:20.917Z,14.10
2022-09-02T01:44:48.966Z,14.10
2022-09-02T01:47:20.165Z,14.10
2022-09-02T01:49:48.383Z,14.10
2022-09-02T01:52:17.533Z,14.10
2022-09-02T01:54:45.673Z,14.00
2022-09-02T01:57:15.197Z,14.10
2022-09-02T01:59:43.714Z,14.10
2022-09-02T02:02:11.756Z,14.00
2022-09-02T02:04:39.866Z,14.00
2022-09-02T02:07:09.093Z,14.00
2022-09-02T02:09:37.043Z,13.90
2022-09-02T02:12:06.157Z,13.90
2022-09-02T02:14:35.365Z,13.90
2022-09-02T02:17:03.225Z,13.90
2022-09-02T02:19:31.352Z,13.90
2022-09-02T02:21:59.659Z,13.90
2022-09-02T02:24:27.581Z,13.80
2022-09-02T02:26:55.573Z,13.80
2022-09-02T02:29:23.647Z,13.80
2022-09-02T02:31:52.834Z,13.80
2022-09-02T02:34:20.960Z,13.80
2022-09-02T02:36:48.977Z,13.80
2022-09-02T02:39:17.018Z,13.80
2022-09-02T02:41:45.109Z,13.70
2022-09-02T02:44:13.216Z,13.70
2022-09-02T02:46:41.096Z,13.70
2022-09-02T02:49:10.651Z,13.60
2022-09-02T02:51:39.364Z,13.50
2022-09-02T02:54:07.331Z,13.50
2022-09-02T02:56:35.604Z,13.60
2022-09-02T02:59:03.570Z,13.60
2022-09-02T03:01:31.867Z,13.60
2022-09-02T03:03:59.861Z,13.50
2022-09-02T03:06:29.743Z,13.50
2022-09-02T03:08:57.669Z,13.50
2022-09-02T03:11:28.319Z,13.50
2022-09-02T03:13:56.805Z,13.50
2022-09-02T03:16:24.656Z,13.50
2022-09-02T03:18:52.723Z,13.40
2022-09-02T03:21:20.700Z,13.40
2022-09-02T03:23:50.500Z,13.40
2022-09-02T03:26:20.559Z,13.40
2022-09-02T03:28:49.323Z,13.40
2022-09-02T03:31:20.180Z,13.40
2022-09-02T03:33:48.403Z,13.40
2022-09-02T03:36:24.957Z,13.30
2022-09-02T03:38:54.267Z,13.40
2022-09-02T03:41:22.254Z,13.30
2022-09-02T03:43:50.385Z,13.30
2022-09-02T03:46:18.574Z,13.20
2022-09-02T03:48:46.847Z,13.20
2022-09-02T03:51:15.036Z,13.20
2022-09-02T03:53:42.886Z,13.20
2022-09-02T03:56:15.473Z,13.20
2022-09-02T03:58:44.237Z,13.20
2022-09-02T04:01:15.683Z,13.20
2022-09-02T04:03:43.921Z,13.20
2022-09-02T04:06:12.873Z,13.10
2022-09-02T04:08:41.513Z,13.10
2022-09-02T04:11:10.807Z,13.10
2022-09-02T04:13:40.333Z,13.10
2022-09-02T04:16:10.703Z,13.10
2022-09-02T04:18:39.322Z,13.10
2022-09-02T04:21:07.851Z,13.10
2022-09-02T04:23:36.664Z,13.10
2022-09-02T04:26:07.077Z,13.10
2022-09-02T04:28:35.515Z,13.00
2022-09-02T04:31:06.920Z,13.00
2022-09-02T04:33:35.712Z,12.90
2022-09-02T04:36:07.515Z,12.90
2022-09-02T04:38:35.821Z,12.80
2022-09-02T04:41:08.102Z,12.80
2022-09-02T04:43:36.021Z,12.90
2022-09-02T04:46:08.341Z,12.90
2022-09-02T04:48:37.233Z,12.80
2022-09-02T04:51:06.797Z,12.90
2022-09-02T04:53:34.702Z,12.90
2022-09-02T04:56:05.412Z,12.90
2022-09-02T04:58:33.424Z,12.30
2022-09-02T05:01:06.234Z,12.60
2022-09-02T05:03:35.730Z,12.80
2022-09-02T05:06:05.624Z,12.80
2022-09-02T05:08:36.422Z,12.80
2022-09-02T05:11:06.466Z,12.80
2022-09-02T05:13:34.325Z,12.90
2022-09-02T05:16:02.648Z,13.50
2022-09-02T05:18:31.227Z,14.40
2022-09-02T05:21:00.506Z,14.80
2022-09-02T05:23:28.336Z,14.70
2022-09-02T05:25:56.148Z,14.80
2022-09-02T05:28:24.001Z,15.10
2022-09-02T05:30:51.882Z,15.10
2022-09-02T05:33:19.841Z,15.00
2022-09-02T05:35:49.825Z,15.40
2022-09-02T05:38:19.116Z,15.60
2022-09-02T05:40:47.049Z,15.70
2022-09-02T05:43:14.977Z,15.40
2022-09-02T05:45:42.974Z,15.50
2022-09-02T05:48:24.809Z,15.90
2022-09-02T05:50:57.285Z,16.20
2022-09-02T05:53:27.694Z,15.50
2022-09-02T05:55:55.665Z,15.70
2022-09-02T05:58:23.901Z,15.90
2022-09-02T06:00:51.852Z,16.40
2022-09-02T06:03:20.839Z,15.80
2022-09-02T06:05:55.817Z,16.10
2022-09-02T06:08:23.724Z,15.80
2022-09-02T06:10:53.030Z,15.30
2022-09-02T06:13:22.504Z,15.90
2022-09-02T06:15:51.080Z,17.30
2022-09-02T06:18:19.790Z,17.30
2022-09-02T06:20:49.503Z,17.50
2022-09-02T06:23:18.135Z,16.60
2022-09-02T06:25:48.401Z,17.10
2022-09-02T06:28:17.767Z,18.10
2022-09-02T06:30:48.235Z,17.30
2022-09-02T06:33:16.116Z,18.00
2022-09-02T06:35:46.333Z,18.90
2022-09-02T06:38:15.670Z,17.10
2022-09-02T06:40:49.223Z,18.10
2022-09-02T06:43:19.059Z,18.30
2022-09-02T06:45:46.992Z,17.90
2022-09-02T06:48:14.993Z,18.20
2022-09-02T06:50:45.692Z,18.00
2022-09-02T06:53:14.140Z,18.40
2022-09-02T06:55:44.871Z,19.50
2022-09-02T06:58:13.992Z,18.70
2022-09-02T07:00:43.678Z,16.90
2022-09-02T07:03:29.830Z,16.20
2022-09-02T07:06:03.333Z,15.30
2022-09-02T07:08:31.646Z,15.40
2022-09-02T07:10:59.506Z,14.90
2022-09-02T07:13:27.330Z,15.30
2022-09-02T07:15:56.832Z,15.40
2022-09-02T07:18:24.854Z,15.20
2022-09-02T07:20:53.315Z,15.40
2022-09-02T07:23:21.441Z,15.30
2022-09-02T07:25:49.338Z,15.40
2022-09-02T07:28:17.293Z,15.20
2022-09-02T07:30:46.053Z,15.50
2022-09-02T07:33:15.766Z,15.70
2022-09-02T07:35:45.015Z,15.50
2022-09-02T07:38:13.523Z,15.50
2022-09-02T07:40:42.913Z,15.50
2022-09-02T07:43:12.589Z,15.60
2022-09-02T07:45:43.535Z,15.20
2022-09-02T07:48:11.403Z,15.40
2022-09-02T07:50:40.648Z,15.50
2022-09-02T07:53:08.555Z,15.60
2022-09-02T07:55:41.100Z,15.40
2022-09-02T07:58:09.897Z,15.50
2022-09-02T08:00:38.116Z,15.60
2022-09-02T08:05:41.273Z,15.70
2022-09-02T08:08:09.675Z,15.70
2022-09-02T08:10:40.180Z,15.70
2022-09-02T08:13:08.599Z,15.90
2022-09-02T08:15:37.201Z,16.00
2022-09-02T08:18:06.770Z,16.10
2022-09-02T08:20:34.924Z,17.10
2022-09-02T08:23:11.644Z,16.70
2022-09-02T08:25:46.277Z,16.60
2022-09-02T08:28:15.118Z,16.60
2022-09-02T08:30:43.110Z,16.50
2022-09-02T08:33:10.971Z,16.30
2022-09-02T08:35:39.128Z,16.40
2022-09-02T08:38:08.276Z,16.60
2022-09-02T08:40:38.452Z,16.70
2022-09-02T08:43:15.017Z,16.70
2022-09-02T08:45:45.185Z,16.40
2022-09-02T08:48:21.343Z,16.60
2022-09-02T08:50:53.774Z,16.70
2022-09-02T08:53:32.744Z,16.60
2022-09-02T08:56:01.893Z,16.80
2022-09-02T08:58:32.107Z,17.10
2022-09-02T09:01:08.541Z,17.00
2022-09-02T09:03:44.207Z,17.00
2022-09-02T09:06:21.700Z,17.20
2022-09-02T09:08:59.449Z,17.20
2022-09-02T09:11:35.476Z,17.30
2022-09-02T09:14:22.973Z,17.30
2022-09-02T09:16:56.782Z,17.10
2022-09-02T09:19:36.882Z,17.00
2022-09-02T09:22:05.299Z,17.40
2022-09-02T09:24:38.803Z,17.30
2022-09-02T09:27:12.227Z,17.40
2022-09-02T09:29:40.124Z,17.30
2022-09-02T09:32:17.678Z,17.30
2022-09-02T09:35:00.047Z,17.30
2022-09-02T09:37:37.705Z,17.20
2022-09-02T09:40:30.383Z,17.30
2022-09-02T09:45:36.851Z,17.40
2022-09-02T09:48:27.364Z,17.50
2022-09-02T09:51:16.950Z,17.40
2022-09-02T09:53:45.841Z,17.60
2022-09-02T09:56:28.501Z,18.00
2022-09-02T09:58:56.578Z,17.70
2022-09-02T10:01:27.703Z,18.00
2022-09-02T10:03:57.878Z,18.00
2022-09-02T10:06:37.881Z,18.00
2022-09-02T10:09:08.362Z,17.90
2022-09-02T10:11:38.896Z,18.20
2022-09-02T10:14:10.649Z,18.10
2022-09-02T10:16:54.487Z,18.20
2022-09-02T10:19:31.080Z,18.20
2022-09-02T10:22:37.795Z,18.30
2022-09-02T10:25:27.414Z,18.50
2022-09-02T10:28:04.001Z,18.20
2022-09-02T10:30:37.553Z,18.30
2022-09-02T10:33:17.656Z,18.30
2022-09-02T10:35:48.286Z,18.30
2022-09-02T10:38:42.071Z,18.90
2022-09-02T10:41:34.860Z,19.00
2022-09-02T10:44:30.190Z,19.00
2022-09-02T10:47:02.184Z,18.70
2022-09-02T10:49:53.545Z,18.80
2022-09-02T10:52:38.366Z,18.60
2022-09-02T10:55:14.846Z,18.70
2022-09-02T10:57:48.130Z,18.60
2022-09-02T11:00:20.159Z,18.80
2022-09-02T11:02:52.965Z,18.80
2022-09-02T11:05:24.346Z,18.70
2022-09-02T11:07:58.986Z,19.00
2022-09-02T11:10:30.464Z,19.10
2022-09-02T11:13:03.989Z,18.80
2022-09-02T11:15:44.932Z,18.80
2022-09-02T11:18:23.045Z,19.10
2022-09-02T11:21:00.228Z,19.20
2022-09-02T11:23:36.855Z,19.00
2022-09-02T11:26:09.046Z,19.30
2022-09-02T11:28:44.386Z,19.10
2022-09-02T11:31:20.549Z,19.20
2022-09-02T11:33:56.371Z,19.10
2022-09-02T11:36:26.244Z,19.40
2022-09-02T11:39:03.696Z,19.40
2022-09-02T11:41:48.343Z,19.30
2022-09-02T11:44:52.373Z,19.30
2022-09-02T11:47:50.667Z,19.60
2022-09-02T11:50:44.825Z,19.50
2022-09-02T11:53:25.093Z,19.50
2022-09-02T11:55:59.387Z,19.40
2022-09-02T11:58:38.521Z,19.50
2022-09-02T12:01:28.828Z,19.60
2022-09-02T12:07:26.640Z,19.50
2022-09-02T12:10:00.008Z,19.80
2022-09-02T12:13:08.058Z,19.70
2022-09-02T12:15:36.692Z,19.70
2022-09-02T12:18:28.233Z,19.60
2022-09-02T12:21:16.589Z,19.70
2022-09-02T12:24:13.196Z,19.80
2022-09-02T12:27:10.659Z,20.00
2022-09-02T12:29:39.840Z,20.30
2022-09-02T12:32:10.301Z,20.10
2022-09-02T12:34:56.653Z,20.00
2022-09-02T12:38:17.714Z,20.00
2022-09-02T12:40:56.764Z,20.10
2022-09-02T12:43:28.825Z,20.00
2022-09-02T12:46:01.740Z,20.00
2022-09-02T12:48:40.542Z,20.00
2022-09-02T12:51:10.104Z,20.00
2022-09-02T12:53:44.230Z,20.00
2022-09-02T12:56:23.259Z,20.20
2022-09-02T12:58:56.042Z,19.90
2022-09-02T13:01:43.208Z,20.10
2022-09-02T13:04:26.388Z,20.10
2022-09-02T13:07:24.605Z,20.30
2022-09-02T13:10:28.387Z,20.00
2022-09-02T13:13:30.677Z,20.20
2022-09-02T13:16:16.953Z,20.20
2022-09-02T13:19:07.301Z,20.20
2022-09-02T13:21:54.916Z,20.40
2022-09-02T13:24:47.982Z,20.30
2022-09-02T13:27:34.317Z,20.30
2022-09-02T13:30:21.938Z,20.20
2022-09-02T13:32:58.196Z,20.30
2022-09-02T13:35:28.234Z,20.40
2022-09-02T13:38:00.537Z,20.30
2022-09-02T13:40:30.091Z,20.30
2022-09-02T13:43:01.796Z,20.40
2022-09-02T13:45:31.190Z,20.40
2022-09-02T13:48:02.644Z,20.30
2022-09-02T13:50:32.625Z,20.30
2022-09-02T13:55:54.274Z,20.30
2022-09-02T13:58:43.326Z,20.50
2022-09-02T14:01:24.514Z,20.40
2022-09-02T14:03:54.270Z,20.40
2022-09-02T14:06:24.871Z,20.30
2022-09-02T14:08:56.664Z,20.30
2022-09-02T14:11:25.172Z,20.40
2022-09-02T14:13:55.948Z,20.40
2022-09-02T14:16:29.006Z,20.50
2022-09-02T14:19:14.342Z,20.30
2022-09-02T14:21:50.136Z,20.30
2022-09-02T14:24:22.919Z,20.50
2022-09-02T14:26:53.596Z,20.40
2022-09-02T14:29:23.744Z,20.40
2022-09-02T14:32:12.364Z,20.30
2022-09-02T14:34:41.737Z,20.40
2022-09-02T14:37:21.014Z,20.40
2022-09-02T14:40:06.780Z,20.40
2022-09-02T14:42:35.464Z,20.30
2022-09-02T14:45:09.778Z,20.40
2022-09-02T14:47:38.871Z,20.60
2022-09-02T14:50:12.109Z,20.30
2022-09-02T14:52:48.016Z,20.40
2022-09-02T14:55:47.750Z,20.20
2022-09-02T14:58:16.103Z,20.30
2022-09-02T15:00:48.248Z,20.20
2022-09-02T15:03:17.216Z,20.20
2022-09-02T15:05:45.285Z,20.20
2022-09-02T15:08:13.873Z,20.30
2022-09-02T15:10:42.644Z,20.10
2022-09-02T15:13:13.613Z,20.10
2022-09-02T15:15:42.249Z,20.00
2022-09-02T15:18:11.497Z,20.10
2022-09-02T15:20:39.280Z,20.00
2022-09-02T15:23:07.400Z,20.10
2022-09-02T15:25:35.256Z,20.00
2022-09-02T15:28:03.486Z,19.90
2022-09-02T15:30:31.281Z,20.00
2022-09-02T15:33:04.091Z,20.10
2022-09-02T15:35:35.160Z,20.20
2022-09-02T15:38:04.121Z,20.10
2022-09-02T15:40:32.815Z,20.00
2022-09-02T15:43:01.431Z,19.90
2022-09-02T15:45:29.341Z,20.00
2022-09-02T15:47:59.487Z,20.10
2022-09-02T15:50:28.244Z,20.00
2022-09-02T15:52:57.529Z,20.00
2022-09-02T15:55:29.271Z,19.80
2022-09-02T15:57:57.390Z,19.90
2022-09-02T16:00:27.663Z,19.90
2022-09-02T16:02:57.420Z,19.80
2022-09-02T16:05:25.446Z,19.80
2022-09-02T16:07:54.984Z,19.80
2022-09-02T16:10:24.147Z,19.60
2022-09-02T16:12:51.979Z,19.60
2022-09-02T16:15:20.817Z,19.50
2022-09-02T16:17:49.409Z,19.60
2022-09-02T16:20:21.117Z,19.50
2022-09-02T16:22:49.327Z,19.50
2022-09-02T16:25:17.273Z,19.60
2022-09-02T16:27:56.354Z,19.50
2022-09-02T16:30:25.620Z,19.40
2022-09-02T16:32:54.387Z,19.40
2022-09-02T16:35:22.185Z,19.40
2022-09-02T16:37:50.328Z,19.30
2022-09-02T16:40:21.432Z,19.30
2022-09-02T16:42:51.053Z,19.30
2022-09-02T16:45:19.462Z,19.20
2022-09-02T16:47:47.310Z,19.10
2022-09-02T16:50:15.481Z,19.20
2022-09-02T16:52:43.529Z,19.10
2022-09-02T16:55:11.487Z,19.00
2022-09-02T16:57:39.333Z,19.00
2022-09-02T17:00:10.307Z,19.10
2022-09-02T17:02:38.202Z,19.10
2022-09-02T17:05:08.290Z,19.10
2022-09-02T17:07:36.100Z,18.90
2022-09-02T17:10:04.110Z,18.80
2022-09-02T17:12:31.996Z,18.80
2022-09-02T17:14:59.785Z,18.80
2022-09-02T17:17:29.025Z,18.90
2022-09-02T17:19:56.934Z,18.70
2022-09-02T17:22:24.785Z,18.60
2022-09-02T17:24:55.629Z,18.50
2022-09-02T17:27:23.454Z,18.40
2022-09-02T17:29:51.445Z,18.40
2022-09-02T17:32:19.807Z,18.30
2022-09-02T17:34:50.829Z,18.20
2022-09-02T17:37:18.965Z,18.10
2022-09-02T17:39:46.953Z,18.00
2022-09-02T17:42:13.959Z,17.90
2022-09-02T17:44:42.670Z,18.00
2022-09-02T17:47:12.383Z,17.90
2022-09-02T17:49:42.135Z,17.80
2022-09-02T17:52:13.279Z,17.80
2022-09-02T17:54:42.411Z,17.70
2022-09-02T17:57:28.259Z,17.60
2022-09-02T18:00:07.366Z,17.70
2022-09-02T18:03:13.610Z,17.70
2022-09-02T18:05:55.945Z,17.60
2022-09-02T18:08:34.669Z,17.60
2022-09-02T18:11:05.142Z,17.60
2022-09-02T18:13:40.510Z,17.50
2022-09-02T18:16:29.385Z,17.00
2022-09-02T18:19:13.220Z,17.20
2022-09-02T18:21:54.003Z,17.50
2022-09-02T18:24:35.977Z,17.50
2022-09-02T18:27:12.165Z,17.60
2022-09-02T18:29:53.793Z,17.50
2022-09-02T18:32:34.065Z,17.50
2022-09-02T18:35:16.664Z,17.50
2022-09-02T18:37:57.177Z,17.40
2022-09-02T18:40:32.217Z,17.40
2022-09-02T18:43:10.817Z,17.40
2022-09-02T18:45:47.560Z,17.30
2022-09-02T18:48:19.197Z,17.30
2022-09-02T18:50:53.030Z,16.90
2022-09-02T18:53:23.509Z,16.90
2022-09-02T18:55:53.999Z,17.10
2022-09-02T18:58:34.304Z,17.10
2022-09-02T19:01:07.005Z,17.10
2022-09-02T19:03:36.785Z,17.10
2022-09-02T19:06:07.910Z,17.10
2022-09-02T19:08:38.064Z,17.10
2022-09-02T19:11:09.267Z,17.00
2022-09-02T19:13:45.972Z,17.00
2022-09-02T19:16:16.447Z,17.00
2022-09-02T19:18:44.666Z,17.00
2022-09-02T19:21:16.232Z,16.90
2022-09-02T19:23:45.033Z,16.90
2022-09-02T19:26:14.196Z,16.90
2022-09-02T19:28:42.916Z,16.80
2022-09-02T19:31:18.220Z,16.80
2022-09-02T19:33:46.673Z,16.70
2022-09-02T19:36:16.080Z,16.60
2022-09-02T19:38:43.928Z,16.50
2022-09-02T19:41:16.640Z,16.30
2022-09-02T19:43:44.780Z,16.50
2022-09-02T19:46:34.851Z,16.60
2022-09-02T19:49:00.430Z,16.60
2022-09-02T19:51:28.430Z,16.60
2022-09-02T19:53:56.485Z,16.60
2022-09-02T19:56:26.022Z,16.60
2022-09-02T19:58:53.950Z,16.40
2022-09-02T20:01:21.856Z,16.00
2022-09-02T20:03:49.785Z,16.00
2022-09-02T20:06:17.741Z,15.90
2022-09-02T20:08:45.668Z,16.00
2022-09-02T20:11:13.677Z,16.30
2022-09-02T20:13:44.360Z,16.40
2022-09-02T20:16:18.157Z,16.40
2022-09-02T20:18:46.685Z,16.40
2022-09-02T20:21:20.564Z,16.40
2022-09-02T20:23:48.509Z,16.40
2022-09-02T20:26:29.291Z,16.40
2022-09-02T20:29:16.477Z,16.30
2022-09-02T20:31:59.090Z,16.30
2022-09-02T20:34:54.416Z,16.20
2022-09-02T20:37:32.792Z,15.70
2022-09-02T20:40:12.006Z,15.60
2022-09-02T20:43:12.208Z,15.80
2022-09-02T20:45:45.529Z,16.00
2022-09-02T20:48:27.403Z,16.10
2022-09-02T20:51:02.346Z,16.00
2022-09-02T20:53:43.578Z,16.00
2022-09-02T20:56:20.565Z,16.10
2022-09-02T20:58:58.807Z,16.10
2022-09-02T21:01:31.537Z,16.10
2022-09-02T21:04:08.546Z,16.00
2022-09-02T21:06:41.925Z,16.00
2022-09-02T21:09:18.117Z,15.90
2022-09-02T21:11:53.256Z,15.90
2022-09-02T21:14:24.737Z,16.00
2022-09-02T21:16:59.894Z,16.00
2022-09-02T21:19:34.151Z,16.00
2022-09-02T21:22:09.311Z,15.70
2022-09-02T21:24:52.257Z,15.60
2022-09-02T21:27:23.973Z,15.60
2022-09-02T21:30:02.328Z,15.80
2022-09-02T21:32:37.869Z,15.80
2022-09-02T21:35:11.507Z,15.80
2022-09-02T21:37:43.472Z,15.80
2022-09-02T21:40:13.553Z,15.80
2022-09-02T21:42:56.974Z,15.70
2022-09-02T21:45:30.618Z,15.70
2022-09-02T21:48:16.721Z,15.60
2022-09-02T21:50:54.750Z,15.60
2022-09-02T21:53:37.997Z,15.60
2022-09-02T21:56:24.433Z,15.50
2022-09-02T21:59:10.917Z,15.40
2022-09-02T22:01:46.846Z,15.50
2022-09-02T22:04:31.488Z,15.50
2022-09-02T22:07:11.872Z,15.50
2022-09-02T22:09:39.814Z,15.50
2022-09-02T22:12:14.595Z,15.50
2022-09-02T22:14:48.085Z,15.50
2022-09-02T22:17:24.792Z,15.40
2022-09-02T22:19:59.141Z,15.00
2022-09-02T22:22:31.518Z,15.20
2022-09-02T22:24:59.456Z,15.40
2022-09-02T22:27:34.064Z,15.40
2022-09-02T22:30:05.719Z,15.40
2022-09-02T22:32:39.265Z,15.40
2022-09-02T22:35:14.126Z,15.40
2022-09-02T22:37:48.121Z,15.20
2022-09-02T22:40:21.053Z,15.30
2022-09-02T22:42:54.514Z,15.30
2022-09-02T22:45:43.488Z,15.10
2022-09-02T22:48:34.001Z,15.20
2022-09-02T22:51:41.445Z,14.80
2022-09-02T22:54:09.794Z,15.00
2022-09-02T22:56:43.181Z,15.20
2022-09-02T23:02:01.780Z,15.30
2022-09-02T23:05:02.634Z,15.30
2022-09-02T23:07:32.446Z,15.10
2022-09-02T23:10:01.649Z,14.60
2022-09-02T23:12:36.767Z,15.00
2022-09-02T23:15:24.614Z,15.10
2022-09-02T23:17:59.222Z,15.00
2022-09-02T23:20:34.524Z,15.20
2022-09-02T23:23:15.758Z,15.20
2022-09-02T23:25:59.646Z,15.10
2022-09-02T23:28:34.166Z,15.10
2022-09-02T23:31:09.045Z,15.10
2022-09-02T23:33:51.098Z,15.10
2022-09-02T23:36:25.996Z,14.90
2022-09-02T23:39:22.535Z,15.00
2022-09-02T23:41:50.366Z,15.00
2022-09-02T23:44:18.168Z,15.00
2022-09-02T23:46:59.796Z,15.00
2022-09-02T23:49:36.116Z,15.00
2022-09-02T23:52:16.265Z,14.50
2022-09-02T23:55:01.809Z,14.50
2022-09-02T23:57:43.724Z,14.80
